Time;durP1;ratioP1;P1;durP2;ratioP2;P2;SDS_P1;SDS_P2;PMS_P1;PMS_P2;Temp;Humidity;BMP_temperature;BMP_pressure;BME280_temperature;BME280_humidity;BME280_pressure;Samples;Min_cycle;Max_cycle;Signal;HPM_P1;HPM_P2
2021/07/27 00:01:16;;;;;;;7.13;4.90;;;20.90;99.90;;;;;;4114419;28;20041;-72
2021/07/27 00:03:17;;;;;;;6.93;5.10;;;20.90;99.90;;;;;;4138598;28;20061;-72
2021/07/27 00:05:18;;;;;;;7.50;5.63;;;20.80;99.90;;;;;;4152851;28;20041;-72
2021/07/27 00:07:18;;;;;;;6.88;4.85;;;20.80;99.90;;;;;;4144299;28;20465;-72
2021/07/27 00:09:19;;;;;;;8.38;5.72;;;20.80;99.90;;;;;;4130083;28;20023;-73
2021/07/27 00:11:20;;;;;;;7.63;5.60;;;20.80;99.90;;;;;;4138708;28;20052;-72
2021/07/27 00:13:20;;;;;;;7.15;5.30;;;20.80;99.90;;;;;;4134510;28;20069;-72
2021/07/27 00:15:21;;;;;;;7.72;4.93;;;20.80;99.90;;;;;;4131429;28;20113;-72
2021/07/27 00:17:22;;;;;;;7.20;5.13;;;20.80;99.90;;;;;;4152991;28;20037;-72
2021/07/27 00:19:23;;;;;;;7.88;5.32;;;20.80;99.90;;;;;;4155029;28;20045;-72
2021/07/27 00:21:23;;;;;;;6.97;5.25;;;20.80;99.90;;;;;;4151424;28;20128;-73
2021/07/27 00:23:24;;;;;;;8.38;5.65;;;20.70;99.90;;;;;;4152620;28;20092;-72
2021/07/27 00:25:25;;;;;;;8.20;5.07;;;20.70;99.90;;;;;;4151075;28;20453;-72
2021/07/27 00:27:25;;;;;;;7.55;5.25;;;20.70;99.90;;;;;;4148464;28;20033;-72
2021/07/27 00:29:26;;;;;;;9.65;6.22;;;20.70;99.90;;;;;;4149767;28;20429;-72
2021/07/27 00:31:28;;;;;;;7.70;5.25;;;20.80;99.90;;;;;;4129096;28;20034;-72
2021/07/27 00:33:29;;;;;;;7.40;5.00;;;20.70;99.90;;;;;;4146938;28;20042;-72
2021/07/27 00:35:31;;;;;;;7.32;5.18;;;20.70;99.90;;;;;;4150400;28;20282;-72
2021/07/27 00:37:33;;;;;;;6.95;5.57;;;20.70;99.90;;;;;;4146645;28;20513;-72
2021/07/27 00:39:34;;;;;;;7.30;4.55;;;20.60;99.90;;;;;;4133462;28;20077;-72
2021/07/27 00:41:35;;;;;;;9.38;5.22;;;20.60;99.90;;;;;;4142190;28;20029;-72
2021/07/27 00:43:35;;;;;;;7.75;4.70;;;20.60;99.90;;;;;;4126820;28;20042;-72
2021/07/27 00:45:36;;;;;;;6.65;5.50;;;20.60;99.90;;;;;;4125314;28;20295;-72
2021/07/27 00:47:36;;;;;;;6.65;5.32;;;20.60;99.90;;;;;;4154567;28;20050;-71
2021/07/27 00:49:38;;;;;;;8.00;5.45;;;20.60;99.90;;;;;;4125958;28;20030;-72
2021/07/27 00:51:39;;;;;;;6.53;5.10;;;20.60;99.90;;;;;;4145222;28;20041;-72
2021/07/27 00:53:40;;;;;;;7.88;5.47;;;20.60;99.90;;;;;;4128742;28;20038;-72
2021/07/27 00:55:41;;;;;;;7.32;4.90;;;20.60;99.90;;;;;;4129819;28;20057;-72
2021/07/27 00:57:41;;;;;;;8.73;5.43;;;20.70;99.90;;;;;;4146499;28;20030;-72
2021/07/27 00:59:43;;;;;;;10.00;5.80;;;20.70;99.90;;;;;;4114700;28;20043;-72
2021/07/27 01:01:44;;;;;;;7.05;5.20;;;20.70;99.90;;;;;;4150890;28;20441;-72
2021/07/27 01:03:44;;;;;;;5.53;4.75;;;20.70;99.90;;;;;;4145208;28;20034;-72
2021/07/27 01:05:46;;;;;;;7.97;5.43;;;20.70;99.90;;;;;;4153909;28;20042;-72
2021/07/27 01:07:48;;;;;;;8.05;4.70;;;20.70;99.90;;;;;;4149820;28;20477;-72
2021/07/27 01:09:48;;;;;;;7.90;5.93;;;20.70;99.90;;;;;;4150442;28;20049;-72
2021/07/27 01:11:49;;;;;;;7.68;6.00;;;20.70;99.90;;;;;;4145711;28;20041;-72
2021/07/27 01:13:50;;;;;;;8.43;6.38;;;20.60;99.90;;;;;;4145843;28;20061;-72
2021/07/27 01:15:52;;;;;;;8.68;6.60;;;20.60;99.90;;;;;;4128394;28;20099;-72
2021/07/27 01:18:00;;;;;;;10.27;6.50;;;20.60;99.90;;;;;;4150483;28;20033;-72
2021/07/27 01:42:54;;;;;;;9.00;6.72;;;20.40;99.90;;;;;;4129896;28;20117;-72
2021/07/27 01:45:06;;;;;;;10.50;7.63;;;20.40;99.90;;;;;;4140343;28;20057;-72
2021/07/27 01:47:07;;;;;;;10.82;8.00;;;20.40;99.90;;;;;;4145509;28;20060;-72
2021/07/27 01:49:07;;;;;;;9.57;7.22;;;20.40;99.90;;;;;;4125546;28;20042;-72
2021/07/27 01:51:08;;;;;;;9.32;7.80;;;20.40;99.90;;;;;;4137507;28;20044;-72
2021/07/27 01:53:10;;;;;;;11.80;8.73;;;20.40;99.90;;;;;;4135303;28;20045;-72
2021/07/27 01:55:10;;;;;;;10.30;7.47;;;20.40;99.90;;;;;;4139358;28;20153;-72
2021/07/27 01:57:12;;;;;;;10.48;7.70;;;20.30;99.90;;;;;;4125929;28;20280;-72
2021/07/27 01:59:13;;;;;;;15.13;9.38;;;20.30;99.90;;;;;;4144262;28;20022;-72
2021/07/27 02:01:14;;;;;;;12.40;9.30;;;20.30;99.90;;;;;;4136408;28;20026;-72
2021/07/27 02:03:15;;;;;;;13.35;8.98;;;20.30;99.90;;;;;;4137339;28;20409;-72
2021/07/27 02:05:16;;;;;;;12.07;9.00;;;20.30;99.90;;;;;;4127259;28;20061;-72
2021/07/27 02:07:16;;;;;;;11.50;8.52;;;20.20;99.90;;;;;;4120969;28;20038;-72
2021/07/27 02:09:17;;;;;;;10.75;8.20;;;20.20;99.90;;;;;;4143450;28;20041;-72
2021/07/27 02:11:20;;;;;;;13.95;8.93;;;20.20;99.90;;;;;;4138923;28;20026;-72
2021/07/27 02:13:27;;;;;;;11.10;8.10;;;20.20;99.90;;;;;;4141552;28;20065;-72
2021/07/27 02:15:44;;;;;;;11.40;7.78;;;20.10;99.90;;;;;;4135539;28;20649;-72
2021/07/27 02:17:45;;;;;;;10.93;7.93;;;20.10;99.90;;;;;;4119297;28;20034;-72
2021/07/27 02:19:45;;;;;;;11.60;8.35;;;20.10;99.90;;;;;;4136925;28;20054;-72
2021/07/27 02:21:46;;;;;;;11.18;7.75;;;20.00;99.90;;;;;;4123060;28;20026;-72
2021/07/27 02:23:47;;;;;;;10.75;8.38;;;20.00;99.90;;;;;;4122098;28;20113;-72
2021/07/27 02:25:47;;;;;;;12.20;7.55;;;19.90;99.90;;;;;;4143897;28;20031;-72
2021/07/27 02:27:48;;;;;;;11.20;7.93;;;20.00;99.90;;;;;;4139135;28;20773;-72
2021/07/27 02:29:48;;;;;;;12.77;8.52;;;19.90;99.90;;;;;;4118692;28;20030;-72
2021/07/27 02:31:49;;;;;;;11.13;7.88;;;19.80;99.90;;;;;;4114467;28;20047;-72
2021/07/27 02:33:49;;;;;;;10.25;7.40;;;19.70;99.90;;;;;;4123282;28;20383;-72
2021/07/27 02:35:52;;;;;;;10.00;7.38;;;19.80;99.90;;;;;;4146093;28;20521;-72
2021/07/27 02:37:52;;;;;;;13.07;7.95;;;19.70;99.90;;;;;;4145361;28;20229;-72
2021/07/27 02:39:53;;;;;;;13.20;8.20;;;19.70;99.90;;;;;;4149957;28;20559;-72
2021/07/27 02:41:54;;;;;;;11.57;8.07;;;19.70;99.90;;;;;;4128508;28;20505;-72
2021/07/27 02:43:54;;;;;;;10.98;8.50;;;19.70;99.90;;;;;;4152589;28;20113;-72
2021/07/27 02:45:55;;;;;;;11.43;8.60;;;19.70;99.90;;;;;;4146913;28;20036;-72
2021/07/27 02:47:56;;;;;;;12.27;8.35;;;19.70;99.90;;;;;;4149164;28;20025;-72
2021/07/27 02:49:56;;;;;;;11.10;8.18;;;19.70;99.90;;;;;;4138723;28;20033;-72
2021/07/27 02:51:57;;;;;;;11.80;8.65;;;19.70;99.90;;;;;;4113791;28;20109;-72
2021/07/27 02:53:58;;;;;;;13.25;8.43;;;19.70;99.90;;;;;;4122803;28;20054;-72
2021/07/27 02:56:00;;;;;;;10.82;7.88;;;19.70;99.90;;;;;;4152594;28;20033;-72
2021/07/27 02:58:01;;;;;;;11.23;8.07;;;19.60;99.90;;;;;;4127454;28;20049;-72
2021/07/27 03:00:03;;;;;;;18.33;8.77;;;19.70;99.90;;;;;;4126971;28;20110;-72
2021/07/27 03:02:04;;;;;;;11.80;7.97;;;19.70;99.90;;;;;;4149274;28;20032;-72
2021/07/27 03:04:04;;;;;;;11.80;8.02;;;19.70;99.90;;;;;;4149047;28;20490;-72
2021/07/27 03:06:05;;;;;;;18.88;9.35;;;19.70;99.90;;;;;;4148782;28;20038;-72
2021/07/27 03:08:18;;;;;;;11.70;8.90;;;19.70;99.90;;;;;;4140890;28;20429;-72
2021/07/27 03:10:19;;;;;;;14.52;7.90;;;19.60;99.90;;;;;;4144694;28;20256;-72
2021/07/27 03:12:20;;;;;;;12.07;8.40;;;19.60;99.90;;;;;;4113992;28;20126;-72
2021/07/27 03:14:20;;;;;;;15.13;8.43;;;19.60;99.90;;;;;;4148389;28;20042;-72
2021/07/27 03:16:23;;;;;;;11.77;8.32;;;19.60;99.90;;;;;;4147412;28;20037;-72
2021/07/27 03:18:24;;;;;;;15.50;8.90;;;19.60;99.90;;;;;;4148231;28;20610;-72
2021/07/27 03:20:27;;;;;;;13.35;8.85;;;19.60;99.90;;;;;;4151322;28;20033;-72
2021/07/27 03:22:27;;;;;;;11.30;8.20;;;19.60;99.90;;;;;;4151765;28;20367;-72
2021/07/27 03:24:28;;;;;;;13.45;8.60;;;19.60;99.90;;;;;;4147745;28;20088;-72
2021/07/27 03:26:28;;;;;;;16.67;8.55;;;19.60;99.90;;;;;;4150572;28;20368;-72
2021/07/27 03:28:29;;;;;;;12.10;8.48;;;19.60;99.90;;;;;;4153909;28;20395;-72
2021/07/27 03:30:30;;;;;;;10.90;7.85;;;19.50;99.90;;;;;;4147340;28;20493;-71
2021/07/27 03:32:37;;;;;;;13.80;8.85;;;19.60;99.90;;;;;;4129799;28;20054;-72
2021/07/27 03:34:38;;;;;;;14.45;8.40;;;19.60;99.90;;;;;;4147586;28;20583;-72
2021/07/27 03:36:39;;;;;;;14.82;8.98;;;19.50;99.90;;;;;;4134502;28;20125;-72
2021/07/27 03:38:40;;;;;;;10.50;7.78;;;19.60;99.90;;;;;;4127410;28;20129;-72
2021/07/27 03:40:41;;;;;;;14.27;8.25;;;19.50;99.90;;;;;;4157267;28;20336;-72
2021/07/27 03:42:42;;;;;;;11.18;7.40;;;19.50;99.90;;;;;;4135645;28;20064;-72
2021/07/27 03:44:45;;;;;;;14.18;8.68;;;19.50;99.90;;;;;;4114757;28;20038;-72
2021/07/27 03:46:45;;;;;;;14.18;9.90;;;19.50;99.90;;;;;;4147198;28;20033;-72
2021/07/27 03:48:46;;;;;;;13.82;9.95;;;19.40;99.90;;;;;;4133295;28;20449;-72
2021/07/27 03:50:46;;;;;;;12.80;9.40;;;19.40;99.90;;;;;;4150334;28;20034;-72
2021/07/27 03:52:47;;;;;;;16.33;9.80;;;19.40;99.90;;;;;;4155551;28;20271;-72
2021/07/27 03:54:48;;;;;;;14.77;9.73;;;19.40;99.90;;;;;;4132078;28;20045;-72
2021/07/27 03:56:49;;;;;;;15.23;10.13;;;19.40;99.90;;;;;;4145841;28;20033;-72
2021/07/27 03:58:49;;;;;;;13.77;9.77;;;19.40;99.90;;;;;;4130042;28;20100;-72
2021/07/27 04:00:50;;;;;;;13.70;9.90;;;19.40;99.90;;;;;;4147257;28;20030;-72
2021/07/27 04:02:51;;;;;;;14.27;9.95;;;19.40;99.90;;;;;;4131195;28;20038;-72
2021/07/27 04:04:51;;;;;;;15.88;10.13;;;19.40;99.90;;;;;;4144955;28;20087;-72
2021/07/27 04:06:53;;;;;;;17.50;10.40;;;19.30;99.90;;;;;;4147846;28;20037;-72
2021/07/27 04:08:56;;;;;;;16.17;11.05;;;19.40;99.90;;;;;;4133038;28;20041;-72
2021/07/27 04:10:59;;;;;;;16.23;10.50;;;19.30;99.90;;;;;;4152804;28;20034;-72
2021/07/27 04:13:00;;;;;;;19.00;11.63;;;19.30;99.90;;;;;;4147442;28;20128;-72
2021/07/27 04:15:01;;;;;;;18.88;12.32;;;19.30;99.90;;;;;;4143849;28;20478;-72
2021/07/27 04:17:02;;;;;;;18.80;12.30;;;19.30;99.90;;;;;;4154960;28;20034;-72
2021/07/27 04:19:03;;;;;;;17.17;11.48;;;19.20;99.90;;;;;;4152457;28;20116;-72
2021/07/27 04:21:03;;;;;;;15.13;11.20;;;19.30;99.90;;;;;;4147970;28;20044;-72
2021/07/27 04:23:04;;;;;;;19.27;11.88;;;19.30;99.90;;;;;;4151543;28;20037;-72
2021/07/27 04:25:05;;;;;;;20.67;12.60;;;19.30;99.90;;;;;;4151013;28;20286;-72
2021/07/27 04:27:06;;;;;;;18.85;12.55;;;19.30;99.90;;;;;;4132776;28;20125;-72
2021/07/27 04:29:06;;;;;;;16.83;12.43;;;19.20;99.90;;;;;;4155094;28;20033;-72
2021/07/27 04:31:07;;;;;;;21.17;14.18;;;19.20;99.90;;;;;;4146975;28;20121;-72
2021/07/27 04:33:07;;;;;;;19.75;12.55;;;19.30;99.90;;;;;;4156161;28;20385;-72
2021/07/27 04:35:08;;;;;;;19.25;12.10;;;19.20;99.90;;;;;;4135313;28;20039;-72
2021/07/27 04:37:09;;;;;;;18.83;12.52;;;19.20;99.90;;;;;;4131423;28;20128;-72
2021/07/27 04:39:10;;;;;;;19.80;12.25;;;19.30;99.90;;;;;;4132391;28;20038;-72
2021/07/27 04:41:11;;;;;;;20.77;13.07;;;19.30;99.90;;;;;;4120501;28;20042;-72
2021/07/27 04:43:13;;;;;;;19.65;12.70;;;19.30;99.90;;;;;;4137808;28;20048;-72
2021/07/27 04:45:14;;;;;;;;;;;19.30;99.90;;;;;;4152169;28;20222;-72
2021/07/27 04:47:14;;;;;;;18.77;12.77;;;19.30;99.90;;;;;;4153953;28;20270;-72
2021/07/27 04:49:15;;;;;;;23.50;13.80;;;19.30;99.90;;;;;;4146303;28;20080;-72
2021/07/27 04:51:16;;;;;;;20.38;12.95;;;19.40;99.90;;;;;;4136685;28;20065;-72
2021/07/27 04:53:23;;;;;;;21.20;12.85;;;19.40;99.90;;;;;;4124634;28;20054;-71
2021/07/27 04:55:25;;;;;;;19.92;12.57;;;19.40;99.90;;;;;;4139218;28;20044;-72
2021/07/27 04:57:25;;;;;;;17.33;12.50;;;19.30;99.90;;;;;;4123708;28;20097;-72
2021/07/27 04:59:26;;;;;;;21.45;13.75;;;19.40;99.90;;;;;;4141925;28;20062;-72
2021/07/27 05:01:26;;;;;;;20.25;13.63;;;19.40;99.90;;;;;;4140772;28;20496;-72
2021/07/27 05:03:28;;;;;;;22.25;13.40;;;19.40;99.90;;;;;;4137838;28;20398;-72
2021/07/27 05:05:29;;;;;;;20.20;13.53;;;19.40;99.90;;;;;;4136868;28;20117;-72
2021/07/27 05:07:30;;;;;;;20.42;12.93;;;19.40;99.90;;;;;;4140505;28;20631;-72
2021/07/27 05:09:30;;;;;;;20.35;12.52;;;19.50;99.90;;;;;;4134745;28;20050;-72
2021/07/27 05:11:31;;;;;;;19.95;12.95;;;19.40;99.90;;;;;;4142034;28;20295;-72
2021/07/27 05:13:31;;;;;;;18.90;12.20;;;19.40;99.90;;;;;;4117643;28;20440;-72
2021/07/27 05:15:32;;;;;;;23.08;13.60;;;19.50;99.90;;;;;;4144541;28;20037;-72
2021/07/27 05:17:32;;;;;;;22.80;14.27;;;19.40;99.90;;;;;;4136859;28;20038;-72
2021/07/27 05:19:33;;;;;;;20.65;12.32;;;19.40;99.90;;;;;;4137532;28;20497;-72
2021/07/27 05:21:34;;;;;;;21.83;13.50;;;19.40;99.90;;;;;;4116588;28;20387;-72
2021/07/27 05:23:35;;;;;;;17.35;11.93;;;19.40;99.90;;;;;;4112625;28;20030;-72
2021/07/27 05:25:35;;;;;;;24.67;12.63;;;19.40;99.90;;;;;;4119502;28;20039;-72
2021/07/27 05:27:36;;;;;;;21.45;13.15;;;19.40;99.90;;;;;;4141393;28;20030;-72
2021/07/27 05:29:37;;;;;;;19.23;12.98;;;19.40;99.90;;;;;;4120465;28;20030;-72
2021/07/27 05:31:38;;;;;;;23.08;13.63;;;19.50;99.90;;;;;;4107035;28;20093;-72
2021/07/27 05:33:39;;;;;;;18.20;12.80;;;19.50;99.90;;;;;;4144772;28;20393;-72
2021/07/27 05:35:40;;;;;;;19.25;12.20;;;19.50;99.90;;;;;;4122961;28;20058;-72
2021/07/27 05:37:41;;;;;;;17.20;11.70;;;19.50;99.90;;;;;;4139760;28;20104;-72
2021/07/27 05:39:41;;;;;;;19.63;11.77;;;19.50;99.90;;;;;;4136632;28;20038;-72
2021/07/27 05:41:42;;;;;;;23.00;14.25;;;19.50;99.90;;;;;;4140828;28;20394;-72
2021/07/27 05:43:44;;;;;;;23.08;13.43;;;19.50;99.90;;;;;;4121476;28;20038;-72
2021/07/27 05:45:44;;;;;;;19.02;13.40;;;19.50;99.90;;;;;;4103738;28;20028;-72
2021/07/27 05:47:45;;;;;;;27.25;13.82;;;19.50;99.90;;;;;;4141748;28;20253;-72
2021/07/27 05:49:46;;;;;;;17.92;12.43;;;19.50;99.90;;;;;;4138550;28;20057;-72
2021/07/27 05:51:50;;;;;;;16.98;11.70;;;19.50;99.90;;;;;;4139366;28;20038;-72
2021/07/27 05:53:50;;;;;;;20.63;12.52;;;19.50;99.90;;;;;;4136700;28;20038;-72
2021/07/27 05:55:51;;;;;;;24.48;14.40;;;19.50;99.90;;;;;;4135899;28;20168;-72
2021/07/27 05:57:52;;;;;;;17.70;12.38;;;19.60;99.90;;;;;;4136063;28;20470;-72
2021/07/27 05:59:52;;;;;;;19.33;12.75;;;19.50;99.90;;;;;;4139602;28;20466;-72
2021/07/27 06:01:55;;;;;;;18.70;11.95;;;19.60;99.90;;;;;;4139481;28;20034;-72
2021/07/27 06:03:55;;;;;;;19.70;12.40;;;19.60;99.90;;;;;;4140043;28;20275;-72
2021/07/27 06:05:56;;;;;;;19.05;12.57;;;19.50;99.90;;;;;;4144113;28;20084;-72
2021/07/27 06:07:57;;;;;;;19.10;12.70;;;19.60;99.90;;;;;;4138706;28;20092;-72
2021/07/27 06:09:57;;;;;;;21.20;12.20;;;19.60;99.90;;;;;;4120259;28;20044;-72
2021/07/27 06:11:58;;;;;;;22.85;13.32;;;19.60;99.90;;;;;;4140709;28;20050;-72
2021/07/27 06:14:00;;;;;;;17.70;12.45;;;19.60;99.90;;;;;;4135550;28;20045;-72
2021/07/27 06:16:02;;;;;;;17.52;11.82;;;19.60;99.90;;;;;;4102574;28;20455;-72
2021/07/27 06:18:03;;;;;;;19.70;12.60;;;19.60;99.90;;;;;;4116560;28;20030;-72
2021/07/27 06:20:04;;;;;;;17.38;12.20;;;19.60;99.90;;;;;;4118664;28;20138;-72
2021/07/27 06:22:05;;;;;;;22.67;11.82;;;19.60;99.90;;;;;;4125705;28;20034;-72
2021/07/27 06:24:06;;;;;;;18.38;12.82;;;19.60;99.90;;;;;;4126928;28;20526;-72
2021/07/27 06:26:07;;;;;;;15.90;11.27;;;19.60;99.90;;;;;;4123063;28;20027;-72
2021/07/27 06:28:09;;;;;;;17.27;11.70;;;19.60;99.90;;;;;;4119263;28;20037;-72
2021/07/27 06:30:12;;;;;;;15.32;10.70;;;19.60;99.90;;;;;;4140886;28;20030;-72
2021/07/27 06:32:13;;;;;;;19.67;11.77;;;19.60;99.90;;;;;;4133053;28;20041;-73
2021/07/27 06:34:13;;;;;;;14.50;9.88;;;19.70;99.90;;;;;;4140588;28;20481;-72
2021/07/27 06:36:14;;;;;;;13.13;9.18;;;19.80;99.90;;;;;;4143105;28;20691;-72
2021/07/27 06:38:15;;;;;;;16.25;10.57;;;19.90;99.90;;;;;;4144529;28;20038;-72
2021/07/27 06:40:16;;;;;;;16.25;11.05;;;19.90;99.90;;;;;;4141504;28;20026;-72
2021/07/27 06:42:16;;;;;;;19.95;12.30;;;20.00;99.90;;;;;;4138667;28;20041;-74
2021/07/27 06:44:17;;;;;;;17.33;11.90;;;20.10;99.90;;;;;;4116051;28;20035;-71
2021/07/27 06:46:17;;;;;;;17.25;10.52;;;20.10;99.90;;;;;;4140054;28;20038;-71
2021/07/27 06:48:18;;;;;;;15.00;10.50;;;20.10;99.90;;;;;;4134081;28;20080;-70
2021/07/27 06:50:19;;;;;;;16.50;10.80;;;20.20;99.90;;;;;;4115468;28;20527;-71
2021/07/27 06:52:20;;;;;;;16.23;10.77;;;20.20;99.90;;;;;;4134274;28;20049;-70
2021/07/27 06:54:21;;;;;;;18.45;10.60;;;20.20;99.90;;;;;;4116832;28;20069;-71
2021/07/27 06:56:22;;;;;;;15.75;10.38;;;20.20;99.90;;;;;;4133455;28;20038;-71
2021/07/27 06:58:23;;;;;;;12.20;9.00;;;20.20;99.90;;;;;;4137670;28;20527;-71
2021/07/27 07:00:23;;;;;;;13.38;9.02;;;20.30;99.90;;;;;;4116962;28;20046;-71
2021/07/27 07:02:27;;;;;;;17.20;10.30;;;20.30;99.90;;;;;;4115884;28;20057;-71
2021/07/27 07:04:27;;;;;;;12.75;8.95;;;20.20;99.90;;;;;;4134406;28;20497;-71
2021/07/27 07:06:28;;;;;;;10.85;8.55;;;20.30;99.90;;;;;;4117956;28;20043;-70
2021/07/27 07:08:28;;;;;;;13.25;9.18;;;20.30;99.90;;;;;;4116341;28;20038;-71
2021/07/27 07:10:29;;;;;;;14.32;9.07;;;20.40;99.90;;;;;;4135184;28;20037;-70
2021/07/27 07:12:30;;;;;;;15.40;9.10;;;20.30;99.90;;;;;;4113892;28;20458;-70
2021/07/27 07:14:30;;;;;;;13.57;8.38;;;20.30;99.90;;;;;;4136035;28;20042;-70
2021/07/27 07:16:31;;;;;;;19.27;10.23;;;20.30;99.90;;;;;;4132392;28;20042;-70
2021/07/27 07:18:32;;;;;;;10.45;8.15;;;20.30;99.90;;;;;;4115279;28;20137;-71
2021/07/27 07:20:32;;;;;;;14.95;8.88;;;20.30;99.90;;;;;;4117680;28;20050;-71
2021/07/27 07:22:33;;;;;;;14.02;8.25;;;20.40;99.90;;;;;;4137969;28;20049;-71
2021/07/27 07:24:33;;;;;;;11.65;7.90;;;20.40;99.90;;;;;;4098549;28;20041;-71
2021/07/27 07:26:34;;;;;;;12.23;7.53;;;20.40;99.90;;;;;;4133739;28;20035;-71
2021/07/27 07:28:37;;;;;;;11.35;7.57;;;20.40;99.90;;;;;;4132771;28;20636;-70
2021/07/27 07:30:38;;;;;;;11.15;7.68;;;20.40;99.90;;;;;;4099954;28;20039;-70
2021/07/27 07:32:39;;;;;;;10.38;7.78;;;20.50;99.90;;;;;;4130482;28;20076;-70
2021/07/27 07:34:39;;;;;;;12.57;8.30;;;20.50;99.90;;;;;;4115798;28;20125;-70
2021/07/27 07:36:40;;;;;;;15.05;8.80;;;20.60;99.90;;;;;;4136233;28;20034;-70
2021/07/27 07:38:42;;;;;;;13.65;8.20;;;20.60;99.90;;;;;;4136114;28;20034;-70
2021/07/27 07:40:42;;;;;;;13.98;9.05;;;20.60;99.90;;;;;;4135101;28;20121;-70
2021/07/27 07:42:43;;;;;;;9.55;7.05;;;20.60;99.90;;;;;;4116883;28;20445;-70
2021/07/27 07:44:43;;;;;;;11.88;6.82;;;20.60;99.90;;;;;;4132681;28;20030;-70
2021/07/27 07:46:44;;;;;;;9.57;7.00;;;20.70;99.90;;;;;;4137337;28;20049;-70
2021/07/27 07:48:44;;;;;;;12.88;8.57;;;20.70;99.90;;;;;;4132501;28;20038;-70
2021/07/27 07:50:45;;;;;;;10.77;7.75;;;20.80;99.90;;;;;;4132434;28;20122;-70
2021/07/27 07:52:46;;;;;;;14.60;8.13;;;20.80;99.90;;;;;;4117736;28;20041;-70
2021/07/27 07:54:46;;;;;;;16.05;9.18;;;20.90;99.90;;;;;;4134997;28;20129;-70
2021/07/27 07:56:47;;;;;;;11.00;7.43;;;20.90;99.90;;;;;;4131255;28;20061;-70
2021/07/27 07:58:48;;;;;;;10.77;7.60;;;20.90;99.90;;;;;;4132049;28;20041;-72
2021/07/27 08:00:50;;;;;;;11.60;7.07;;;20.90;99.90;;;;;;4133215;28;20042;-70
2021/07/27 08:02:52;;;;;;;12.73;8.02;;;21.00;99.90;;;;;;4131726;28;20103;-70
2021/07/27 08:04:53;;;;;;;11.23;8.30;;;21.00;99.90;;;;;;4096710;28;20043;-70
2021/07/27 08:06:53;;;;;;;11.13;8.40;;;21.00;99.90;;;;;;4131949;28;20282;-70
2021/07/27 08:08:54;;;;;;;10.65;7.88;;;21.00;99.90;;;;;;4112768;28;20038;-70
2021/07/27 08:10:55;;;;;;;11.30;7.65;;;21.00;99.90;;;;;;4114900;28;20105;-70
2021/07/27 08:12:55;;;;;;;12.80;8.68;;;21.10;99.90;;;;;;4131395;28;20077;-70
2021/07/27 08:14:56;;;;;;;10.48;7.85;;;21.10;99.90;;;;;;4129902;28;20129;-70
2021/07/27 08:16:56;;;;;;;12.73;8.20;;;21.20;99.90;;;;;;4112853;28;20050;-70
2021/07/27 08:19:00;;;;;;;10.90;8.10;;;21.20;99.90;;;;;;4133100;28;20053;-70
2021/07/27 08:21:01;;;;;;;11.05;7.55;;;21.20;99.90;;;;;;4117064;28;20043;-70
2021/07/27 08:23:02;;;;;;;13.73;8.55;;;21.30;99.90;;;;;;4095831;28;20134;-70
2021/07/27 08:25:03;;;;;;;12.98;8.18;;;21.40;99.90;;;;;;4113302;28;20084;-70
2021/07/27 08:27:10;;;;;;;11.85;7.88;;;21.50;99.90;;;;;;4113101;28;20046;-70
2021/07/27 08:29:10;;;;;;;12.80;9.10;;;21.50;99.90;;;;;;4132434;28;20266;-70
2021/07/27 08:31:15;;;;;;;13.63;9.30;;;21.60;99.90;;;;;;4131839;28;20049;-70
2021/07/27 08:33:16;;;;;;;9.93;7.35;;;21.70;99.90;;;;;;4130942;28;20477;-70
2021/07/27 08:35:17;;;;;;;11.48;8.48;;;21.70;99.90;;;;;;4131355;28;20065;-70
2021/07/27 08:37:18;;;;;;;13.02;8.75;;;21.80;99.90;;;;;;4131530;28;20132;-70
2021/07/27 08:39:18;;;;;;;11.38;8.45;;;21.80;99.90;;;;;;4128110;28;20510;-70
2021/07/27 08:41:27;;;;;;;11.60;8.23;;;21.90;99.90;;;;;;4129987;28;20038;-70
2021/07/27 08:43:28;;;;;;;10.50;7.40;;;21.90;99.90;;;;;;4130637;28;20049;-70
2021/07/27 08:45:30;;;;;;;10.23;6.85;;;22.00;99.90;;;;;;4133287;28;20395;-70
2021/07/27 08:47:32;;;;;;;15.80;6.88;;;22.10;99.90;;;;;;4111500;28;20070;-70
2021/07/27 08:49:33;;;;;;;11.30;7.68;;;22.10;99.90;;;;;;4130674;28;20863;-71
2021/07/27 08:51:34;;;;;;;10.63;7.50;;;22.20;99.90;;;;;;4131304;28;20169;-70
2021/07/27 08:53:35;;;;;;;16.42;7.70;;;22.30;99.90;;;;;;4116270;28;20038;-70
2021/07/27 08:55:35;;;;;;;11.27;7.53;;;22.40;99.90;;;;;;4134260;28;20026;-70
2021/07/27 08:57:46;;;;;;;11.25;8.25;;;22.50;99.90;;;;;;4111619;28;20577;-70
2021/07/27 08:59:47;;;;;;;10.70;7.15;;;22.50;99.90;;;;;;4112073;28;20054;-70
2021/07/27 09:01:52;;;;;;;9.45;6.82;;;22.60;99.90;;;;;;4129717;28;20120;-70
2021/07/27 09:03:53;;;;;;;7.53;6.10;;;22.70;99.90;;;;;;4131288;28;20096;-70
2021/07/27 09:06:06;;;;;;;11.35;7.28;;;22.70;99.90;;;;;;4130140;28;20038;-70
2021/07/27 09:08:08;;;;;;;8.48;6.32;;;22.80;99.90;;;;;;4109961;28;20070;-70
2021/07/27 09:10:21;;;;;;;8.13;6.60;;;22.90;99.90;;;;;;4126366;28;20065;-70
2021/07/27 09:12:22;;;;;;;;;;;23.00;99.90;;;;;;4113809;28;20066;-70
2021/07/27 09:14:23;;;;;;;13.52;7.82;;;23.10;99.90;;;;;;4128373;28;19921;-70
2021/07/27 09:16:23;;;;;;;9.35;6.47;;;23.20;99.90;;;;;;4128710;28;20050;-71
2021/07/27 09:18:24;;;;;;;13.10;7.30;;;23.30;99.90;;;;;;4127623;28;20034;-71
2021/07/27 09:20:35;;;;;;;9.52;7.18;;;23.40;99.90;;;;;;4113402;28;20046;-70
2021/07/27 09:22:45;;;;;;;10.57;6.40;;;23.40;99.90;;;;;;4130855;28;20065;-70
2021/07/27 09:24:45;;;;;;;11.05;6.75;;;23.50;99.90;;;;;;4131040;28;20156;-71
2021/07/27 09:26:59;;;;;;;10.77;7.65;;;23.50;99.90;;;;;;4112001;28;20049;-70
2021/07/27 09:29:05;;;;;;;11.27;6.97;;;23.40;99.90;;;;;;4130251;28;20408;-71
2021/07/27 09:31:06;;;;;;;12.23;7.85;;;23.50;99.90;;;;;;4129241;28;20395;-70
2021/07/27 09:33:08;;;;;;;11.38;6.85;;;23.40;99.90;;;;;;4109683;28;20097;-70
2021/07/27 09:35:09;;;;;;;11.15;7.05;;;23.50;99.90;;;;;;4128756;28;20193;-70
2021/07/27 09:37:10;;;;;;;13.63;7.30;;;23.40;99.90;;;;;;4114387;28;20034;-70
2021/07/27 09:39:10;;;;;;;8.90;6.75;;;23.40;99.90;;;;;;4111173;28;20061;-71
2021/07/27 09:41:11;;;;;;;9.35;6.93;;;23.40;99.90;;;;;;4128901;28;20106;-72
2021/07/27 09:43:12;;;;;;;7.93;6.43;;;23.40;99.90;;;;;;4111312;28;20030;-70
2021/07/27 09:45:13;;;;;;;9.07;6.55;;;23.50;99.90;;;;;;4130622;28;20064;-70
2021/07/27 09:47:13;;;;;;;9.02;6.88;;;23.50;99.90;;;;;;4110308;28;20039;-70
2021/07/27 09:49:17;;;;;;;11.43;6.80;;;23.50;99.90;;;;;;4132165;28;20037;-70
2021/07/27 09:51:18;;;;;;;9.52;7.00;;;23.50;99.90;;;;;;4127858;28;20045;-71
2021/07/27 09:53:19;;;;;;;12.77;7.65;;;23.50;99.90;;;;;;4127470;28;20026;-70
2021/07/27 09:55:22;;;;;;;7.78;6.28;;;23.60;99.90;;;;;;4127739;28;20053;-70
2021/07/27 09:57:23;;;;;;;8.80;6.45;;;23.60;99.90;;;;;;4128593;28;20053;-71
2021/07/27 09:59:25;;;;;;;9.55;7.38;;;23.70;99.90;;;;;;4110231;28;20038;-70
2021/07/27 10:01:27;;;;;;;9.57;7.07;;;23.70;99.90;;;;;;4111728;28;20414;-70
2021/07/27 10:03:33;;;;;;;9.45;6.82;;;23.80;99.90;;;;;;4131834;28;20675;-70
2021/07/27 10:05:34;;;;;;;10.18;6.72;;;23.80;99.90;;;;;;4128485;28;20498;-70
2021/07/27 10:07:35;;;;;;;8.20;6.72;;;23.80;99.90;;;;;;4111819;28;20065;-71
2021/07/27 10:09:36;;;;;;;9.30;7.03;;;23.90;99.90;;;;;;4131941;28;20038;-70
2021/07/27 10:11:38;;;;;;;12.00;6.90;;;23.90;99.90;;;;;;4130529;28;20049;-70
2021/07/27 10:13:46;;;;;;;14.60;7.13;;;23.90;99.90;;;;;;4111898;28;20101;-70
2021/07/27 10:15:47;;;;;;;8.13;5.65;;;24.00;99.90;;;;;;4113041;28;20118;-70
2021/07/27 10:17:49;;;;;;;10.30;6.83;;;24.00;99.90;;;;;;4132354;28;20026;-71
2021/07/27 10:19:56;;;;;;;7.22;5.70;;;23.90;99.90;;;;;;4130227;28;20025;-70
2021/07/27 10:22:06;;;;;;;10.68;7.00;;;24.00;99.90;;;;;;4126699;28;20660;-70
2021/07/27 10:24:12;;;;;;;10.40;6.68;;;24.00;99.90;;;;;;4108837;28;20035;-70
2021/07/27 10:26:24;;;;;;;8.27;5.93;;;24.10;99.90;;;;;;4113648;28;20027;-71
2021/07/27 10:28:26;;;;;;;7.13;5.40;;;24.10;99.90;;;;;;4128259;28;20176;-71
2021/07/27 10:30:33;;;;;;;;;;;24.20;99.90;;;;;;4129016;28;20062;-71
2021/07/27 10:32:34;;;;;;;8.32;6.88;;;24.20;99.90;;;;;;4129470;28;19927;-71
2021/07/27 10:34:35;;;;;;;15.10;7.28;;;24.20;99.90;;;;;;4127280;28;20296;-71
2021/07/27 10:36:43;;;;;;;10.07;6.72;;;24.20;99.90;;;;;;4129761;28;20034;-71
2021/07/27 10:38:46;;;;;;;9.57;6.43;;;24.10;99.90;;;;;;4131550;28;20502;-71
2021/07/27 10:40:47;;;;;;;;;;;24.10;99.90;;;;;;4116186;28;20030;-71
2021/07/27 10:42:48;;;;;;;9.80;7.20;;;24.10;99.90;;;;;;4111001;28;19921;-71
2021/07/27 10:44:49;;;;;;;11.07;7.93;;;24.10;99.90;;;;;;4111703;28;20027;-71
2021/07/27 10:46:51;;;;;;;10.18;7.00;;;24.10;99.90;;;;;;4131136;28;20648;-71
2021/07/27 10:48:52;;;;;;;10.77;6.38;;;24.10;99.90;;;;;;4133299;28;20116;-71